sensor_id;sensor_type;location;lat;lon;timestamp;temperature;humidity
19164;DHT22;9714;51.208;4.242;2022-10-16T00:00:00;15.20;99.90
19164;DHT22;9714;51.208;4.242;2022-10-16T00:02:27;15.40;99.90
19164;DHT22;9714;51.208;4.242;2022-10-16T00:04:58;15.50;99.90
19164;DHT22;9714;51.208;4.242;2022-10-16T00:07:25;15.40;99.90
19164;DHT22;9714;51.208;4.242;2022-10-16T00:09:52;15.00;99.90
19164;DHT22;9714;51.208;4.242;2022-10-16T00:12:21;15.00;99.90
19164;DHT22;9714;51.208;4.242;2022-10-16T00:14:48;15.20;99.90
19164;DHT22;9714;51.208;4.242;2022-10-16T00:17:15;15.10;99.90
19164;DHT22;9714;51.208;4.242;2022-10-16T00:19:44;15.10;99.90
19164;DHT22;9714;51.208;4.242;2022-10-16T00:22:13;15.10;99.90
19164;DHT22;9714;51.208;4.242;2022-10-16T00:24:40;15.20;99.90
19164;DHT22;9714;51.208;4.242;2022-10-16T00:27:07;15.10;99.90
19164;DHT22;9714;51.208;4.242;2022-10-16T00:29:40;15.20;99.90
19164;DHT22;9714;51.208;4.242;2022-10-16T00:32:08;15.20;99.90
19164;DHT22;9714;51.208;4.242;2022-10-16T00:34:35;15.10;99.90
19164;DHT22;9714;51.208;4.242;2022-10-16T00:37:03;15.10;99.90
19164;DHT22;9714;51.208;4.242;2022-10-16T00:39:31;15.20;99.90
19164;DHT22;9714;51.208;4.242;2022-10-16T00:41:58;15.20;99.90
19164;DHT22;9714;51.208;4.242;2022-10-16T00:44:48;15.10;99.90
19164;DHT22;9714;51.208;4.242;2022-10-16T00:47:21;15.00;99.90
19164;DHT22;9714;51.208;4.242;2022-10-16T00:49:50;15.00;99.90
19164;DHT22;9714;51.208;4.242;2022-10-16T00:52:19;15.00;99.90
19164;DHT22;9714;51.208;4.242;2022-10-16T00:54:49;15.00;99.90
19164;DHT22;9714;51.208;4.242;2022-10-16T00:57:16;14.90;99.90
19164;DHT22;9714;51.208;4.242;2022-10-16T00:59:43;14.70;99.90
19164;DHT22;9714;51.208;4.242;2022-10-16T01:02:14;14.70;99.90
19164;DHT22;9714;51.208;4.242;2022-10-16T01:04:43;14.80;99.90
19164;DHT22;9714;51.208;4.242;2022-10-16T01:07:18;14.80;99.90
19164;DHT22;9714;51.208;4.242;2022-10-16T01:10:07;14.80;99.90
19164;DHT22;9714;51.208;4.242;2022-10-16T01:12:40;14.80;99.90
19164;DHT22;9714;51.208;4.242;2022-10-16T01:15:17;14.80;99.90
19164;DHT22;9714;51.208;4.242;2022-10-16T01:17:47;14.70;99.90
19164;DHT22;9714;51.208;4.242;2022-10-16T01:20:21;14.90;99.90
19164;DHT22;9714;51.208;4.242;2022-10-16T01:23:07;14.80;99.90
19164;DHT22;9714;51.208;4.242;2022-10-16T01:25:57;14.70;99.90
19164;DHT22;9714;51.208;4.242;2022-10-16T01:28:36;14.70;99.90
19164;DHT22;9714;51.208;4.242;2022-10-16T01:31:05;14.60;99.90
19164;DHT22;9714;51.208;4.242;2022-10-16T01:33:36;14.60;99.90
19164;DHT22;9714;51.208;4.242;2022-10-16T01:36:10;14.70;99.90
19164;DHT22;9714;51.208;4.242;2022-10-16T01:38:40;14.70;99.90
19164;DHT22;9714;51.208;4.242;2022-10-16T01:41:09;14.60;99.90
19164;DHT22;9714;51.208;4.242;2022-10-16T01:43:41;14.50;99.90
19164;DHT22;9714;51.208;4.242;2022-10-16T01:46:10;14.50;99.90
19164;DHT22;9714;51.208;4.242;2022-10-16T01:48:39;14.50;99.90
19164;DHT22;9714;51.208;4.242;2022-10-16T01:51:10;14.70;99.90
19164;DHT22;9714;51.208;4.242;2022-10-16T01:53:39;14.60;99.90
19164;DHT22;9714;51.208;4.242;2022-10-16T01:56:09;14.60;99.90
19164;DHT22;9714;51.208;4.242;2022-10-16T01:58:42;14.60;99.90
19164;DHT22;9714;51.208;4.242;2022-10-16T02:01:15;14.70;99.90
19164;DHT22;9714;51.208;4.242;2022-10-16T02:03:44;14.50;99.90
19164;DHT22;9714;51.208;4.242;2022-10-16T02:06:13;14.40;99.90
19164;DHT22;9714;51.208;4.242;2022-10-16T02:08:40;14.40;99.90
19164;DHT22;9714;51.208;4.242;2022-10-16T02:11:09;14.60;99.90
19164;DHT22;9714;51.208;4.242;2022-10-16T02:13:39;14.50;99.90
19164;DHT22;9714;51.208;4.242;2022-10-16T02:16:10;14.50;99.90
19164;DHT22;9714;51.208;4.242;2022-10-16T02:18:37;14.40;99.90
19164;DHT22;9714;51.208;4.242;2022-10-16T02:21:11;14.30;99.90
19164;DHT22;9714;51.208;4.242;2022-10-16T02:23:47;14.30;99.90
19164;DHT22;9714;51.208;4.242;2022-10-16T02:26:21;14.30;99.90
19164;DHT22;9714;51.208;4.242;2022-10-16T02:28:54;14.30;99.90
19164;DHT22;9714;51.208;4.242;2022-10-16T02:31:26;14.40;99.90
19164;DHT22;9714;51.208;4.242;2022-10-16T02:33:57;14.50;99.90
19164;DHT22;9714;51.208;4.242;2022-10-16T02:36:25;14.30;99.90
19164;DHT22;9714;51.208;4.242;2022-10-16T02:38:53;14.30;99.90
19164;DHT22;9714;51.208;4.242;2022-10-16T02:41:21;14.40;99.90
19164;DHT22;9714;51.208;4.242;2022-10-16T02:43:48;14.40;99.90
19164;DHT22;9714;51.208;4.242;2022-10-16T02:46:17;14.30;99.90
19164;DHT22;9714;51.208;4.242;2022-10-16T02:48:46;14.40;99.90
19164;DHT22;9714;51.208;4.242;2022-10-16T02:51:13;14.30;99.90
19164;DHT22;9714;51.208;4.242;2022-10-16T02:53:40;14.40;99.90
19164;DHT22;9714;51.208;4.242;2022-10-16T02:56:07;14.30;99.90
19164;DHT22;9714;51.208;4.242;2022-10-16T02:58:34;14.30;99.90
19164;DHT22;9714;51.208;4.242;2022-10-16T03:01:01;14.40;99.90
19164;DHT22;9714;51.208;4.242;2022-10-16T03:03:28;14.30;99.90
19164;DHT22;9714;51.208;4.242;2022-10-16T03:05:57;14.30;99.90
19164;DHT22;9714;51.208;4.242;2022-10-16T03:08:24;14.30;99.90
19164;DHT22;9714;51.208;4.242;2022-10-16T03:10:51;14.30;99.90
19164;DHT22;9714;51.208;4.242;2022-10-16T03:13:18;14.40;99.90
19164;DHT22;9714;51.208;4.242;2022-10-16T03:15:47;14.20;99.90
19164;DHT22;9714;51.208;4.242;2022-10-16T03:18:14;14.50;99.90
19164;DHT22;9714;51.208;4.242;2022-10-16T03:20:42;14.40;99.90
19164;DHT22;9714;51.208;4.242;2022-10-16T03:23:11;14.50;99.90
19164;DHT22;9714;51.208;4.242;2022-10-16T03:25:38;14.30;99.90
19164;DHT22;9714;51.208;4.242;2022-10-16T03:28:06;14.40;99.90
19164;DHT22;9714;51.208;4.242;2022-10-16T03:30:32;14.20;99.90
19164;DHT22;9714;51.208;4.242;2022-10-16T03:32:59;14.20;99.90
19164;DHT22;9714;51.208;4.242;2022-10-16T03:35:26;14.20;99.90
19164;DHT22;9714;51.208;4.242;2022-10-16T03:37:55;14.20;99.90
19164;DHT22;9714;51.208;4.242;2022-10-16T03:40:25;14.30;99.90
19164;DHT22;9714;51.208;4.242;2022-10-16T03:42:51;14.10;99.90
19164;DHT22;9714;51.208;4.242;2022-10-16T03:45:21;14.10;99.90
19164;DHT22;9714;51.208;4.242;2022-10-16T03:47:48;14.30;99.90
19164;DHT22;9714;51.208;4.242;2022-10-16T03:50:15;14.30;99.90
19164;DHT22;9714;51.208;4.242;2022-10-16T03:52:42;14.30;99.90
19164;DHT22;9714;51.208;4.242;2022-10-16T03:55:10;14.30;99.90
19164;DHT22;9714;51.208;4.242;2022-10-16T03:57:38;14.20;99.90
19164;DHT22;9714;51.208;4.242;2022-10-16T04:00:06;14.20;99.90
19164;DHT22;9714;51.208;4.242;2022-10-16T04:02:33;14.20;99.90
19164;DHT22;9714;51.208;4.242;2022-10-16T04:05:00;14.00;99.90
19164;DHT22;9714;51.208;4.242;2022-10-16T04:07:27;14.20;99.90
19164;DHT22;9714;51.208;4.242;2022-10-16T04:09:54;14.20;99.90
19164;DHT22;9714;51.208;4.242;2022-10-16T04:12:22;14.10;99.90
19164;DHT22;9714;51.208;4.242;2022-10-16T04:14:52;14.00;99.90
19164;DHT22;9714;51.208;4.242;2022-10-16T04:17:19;14.00;99.90
19164;DHT22;9714;51.208;4.242;2022-10-16T04:19:46;14.20;99.90
19164;DHT22;9714;51.208;4.242;2022-10-16T04:22:13;14.00;99.90
19164;DHT22;9714;51.208;4.242;2022-10-16T04:24:40;14.00;99.90
19164;DHT22;9714;51.208;4.242;2022-10-16T04:27:07;13.80;99.90
19164;DHT22;9714;51.208;4.242;2022-10-16T04:29:34;14.00;99.90
19164;DHT22;9714;51.208;4.242;2022-10-16T04:32:02;14.00;99.90
19164;DHT22;9714;51.208;4.242;2022-10-16T04:34:29;14.00;99.90
19164;DHT22;9714;51.208;4.242;2022-10-16T04:36:56;14.20;99.90
19164;DHT22;9714;51.208;4.242;2022-10-16T04:39:22;14.10;99.90
19164;DHT22;9714;51.208;4.242;2022-10-16T04:41:49;13.90;99.90
19164;DHT22;9714;51.208;4.242;2022-10-16T04:44:16;14.00;99.90
19164;DHT22;9714;51.208;4.242;2022-10-16T04:46:43;14.00;99.90
19164;DHT22;9714;51.208;4.242;2022-10-16T04:49:12;14.00;99.90
19164;DHT22;9714;51.208;4.242;2022-10-16T04:51:39;14.00;99.90
19164;DHT22;9714;51.208;4.242;2022-10-16T04:54:06;14.00;99.90
19164;DHT22;9714;51.208;4.242;2022-10-16T04:56:33;14.00;99.90
19164;DHT22;9714;51.208;4.242;2022-10-16T04:59:05;13.80;99.90
19164;DHT22;9714;51.208;4.242;2022-10-16T05:01:32;14.00;99.90
19164;DHT22;9714;51.208;4.242;2022-10-16T05:03:59;14.00;99.90
19164;DHT22;9714;51.208;4.242;2022-10-16T05:06:27;13.90;99.90
19164;DHT22;9714;51.208;4.242;2022-10-16T05:08:55;13.90;99.90
19164;DHT22;9714;51.208;4.242;2022-10-16T05:11:22;13.80;99.90
19164;DHT22;9714;51.208;4.242;2022-10-16T05:13:49;13.80;99.90
19164;DHT22;9714;51.208;4.242;2022-10-16T05:16:16;13.90;99.90
19164;DHT22;9714;51.208;4.242;2022-10-16T05:18:43;13.90;99.90
19164;DHT22;9714;51.208;4.242;2022-10-16T05:21:10;13.80;99.90
19164;DHT22;9714;51.208;4.242;2022-10-16T05:23:38;13.80;99.90
19164;DHT22;9714;51.208;4.242;2022-10-16T05:26:05;13.70;99.90
19164;DHT22;9714;51.208;4.242;2022-10-16T05:28:32;13.70;99.90
19164;DHT22;9714;51.208;4.242;2022-10-16T05:30:59;13.80;99.90
19164;DHT22;9714;51.208;4.242;2022-10-16T05:33:31;13.70;99.90
19164;DHT22;9714;51.208;4.242;2022-10-16T05:36:01;13.70;99.90
19164;DHT22;9714;51.208;4.242;2022-10-16T05:38:28;13.70;99.90
19164;DHT22;9714;51.208;4.242;2022-10-16T05:40:57;13.50;99.90
19164;DHT22;9714;51.208;4.242;2022-10-16T05:43:24;13.70;99.90
19164;DHT22;9714;51.208;4.242;2022-10-16T05:45:55;13.80;99.90
19164;DHT22;9714;51.208;4.242;2022-10-16T05:48:23;13.70;99.90
19164;DHT22;9714;51.208;4.242;2022-10-16T05:50:56;13.90;99.90
19164;DHT22;9714;51.208;4.242;2022-10-16T05:53:25;13.90;99.90
19164;DHT22;9714;51.208;4.242;2022-10-16T05:55:52;13.80;99.90
19164;DHT22;9714;51.208;4.242;2022-10-16T05:58:21;14.00;99.90
19164;DHT22;9714;51.208;4.242;2022-10-16T06:00:55;13.80;99.90
19164;DHT22;9714;51.208;4.242;2022-10-16T06:03:22;13.90;99.90
19164;DHT22;9714;51.208;4.242;2022-10-16T06:05:50;14.20;99.90
19164;DHT22;9714;51.208;4.242;2022-10-16T06:08:17;14.10;99.90
19164;DHT22;9714;51.208;4.242;2022-10-16T06:10:45;14.20;99.90
19164;DHT22;9714;51.208;4.242;2022-10-16T06:13:12;14.30;99.90
19164;DHT22;9714;51.208;4.242;2022-10-16T06:15:42;14.20;99.90
19164;DHT22;9714;51.208;4.242;2022-10-16T06:18:09;14.20;99.90
19164;DHT22;9714;51.208;4.242;2022-10-16T06:20:37;14.10;99.90
19164;DHT22;9714;51.208;4.242;2022-10-16T06:23:04;14.10;99.90
19164;DHT22;9714;51.208;4.242;2022-10-16T06:25:32;14.00;99.90
19164;DHT22;9714;51.208;4.242;2022-10-16T06:27:59;13.90;99.90
19164;DHT22;9714;51.208;4.242;2022-10-16T06:30:26;14.00;99.90
19164;DHT22;9714;51.208;4.242;2022-10-16T06:32:54;14.00;99.90
19164;DHT22;9714;51.208;4.242;2022-10-16T06:35:21;13.90;99.90
19164;DHT22;9714;51.208;4.242;2022-10-16T06:37:50;14.00;99.90
19164;DHT22;9714;51.208;4.242;2022-10-16T06:40:19;13.90;99.90
19164;DHT22;9714;51.208;4.242;2022-10-16T06:42:47;14.00;99.90
19164;DHT22;9714;51.208;4.242;2022-10-16T06:45:14;13.90;99.90
19164;DHT22;9714;51.208;4.242;2022-10-16T06:47:41;13.90;99.90
19164;DHT22;9714;51.208;4.242;2022-10-16T06:50:09;14.10;99.90
19164;DHT22;9714;51.208;4.242;2022-10-16T06:52:38;14.30;99.90
19164;DHT22;9714;51.208;4.242;2022-10-16T06:55:05;14.70;99.90
19164;DHT22;9714;51.208;4.242;2022-10-16T06:57:32;15.00;99.90
19164;DHT22;9714;51.208;4.242;2022-10-16T06:59:59;15.30;99.90
19164;DHT22;9714;51.208;4.242;2022-10-16T07:02:27;15.40;99.90
19164;DHT22;9714;51.208;4.242;2022-10-16T07:04:55;15.60;99.90
19164;DHT22;9714;51.208;4.242;2022-10-16T07:07:25;16.00;99.90
19164;DHT22;9714;51.208;4.242;2022-10-16T07:09:52;16.30;99.90
19164;DHT22;9714;51.208;4.242;2022-10-16T07:12:26;16.10;99.90
19164;DHT22;9714;51.208;4.242;2022-10-16T07:14:53;16.20;99.90
19164;DHT22;9714;51.208;4.242;2022-10-16T07:17:24;16.80;99.90
19164;DHT22;9714;51.208;4.242;2022-10-16T07:19:53;17.10;99.90
19164;DHT22;9714;51.208;4.242;2022-10-16T07:22:22;17.40;99.90
19164;DHT22;9714;51.208;4.242;2022-10-16T07:24:51;17.60;99.90
19164;DHT22;9714;51.208;4.242;2022-10-16T07:27:20;17.30;99.90
19164;DHT22;9714;51.208;4.242;2022-10-16T07:29:51;17.40;99.90
19164;DHT22;9714;51.208;4.242;2022-10-16T07:32:18;17.70;99.90
19164;DHT22;9714;51.208;4.242;2022-10-16T07:34:51;17.90;99.90
19164;DHT22;9714;51.208;4.242;2022-10-16T07:37:20;17.90;99.90
19164;DHT22;9714;51.208;4.242;2022-10-16T07:39:47;18.10;99.90
19164;DHT22;9714;51.208;4.242;2022-10-16T07:42:22;18.50;99.90
19164;DHT22;9714;51.208;4.242;2022-10-16T07:44:49;18.80;99.90
19164;DHT22;9714;51.208;4.242;2022-10-16T07:47:16;18.80;99.90
19164;DHT22;9714;51.208;4.242;2022-10-16T07:49:54;18.90;99.90
19164;DHT22;9714;51.208;4.242;2022-10-16T07:52:22;19.10;99.90
19164;DHT22;9714;51.208;4.242;2022-10-16T07:54:50;19.20;99.90
19164;DHT22;9714;51.208;4.242;2022-10-16T07:57:19;19.40;99.90
19164;DHT22;9714;51.208;4.242;2022-10-16T07:59:47;19.10;99.90
19164;DHT22;9714;51.208;4.242;2022-10-16T08:02:23;19.20;99.90
19164;DHT22;9714;51.208;4.242;2022-10-16T08:04:52;19.50;99.90
19164;DHT22;9714;51.208;4.242;2022-10-16T08:07:31;19.40;99.90
19164;DHT22;9714;51.208;4.242;2022-10-16T08:10:05;20.10;99.90
19164;DHT22;9714;51.208;4.242;2022-10-16T08:15:46;21.10;99.90
19164;DHT22;9714;51.208;4.242;2022-10-16T08:18:15;21.10;99.90
19164;DHT22;9714;51.208;4.242;2022-10-16T08:20:42;21.00;99.90
19164;DHT22;9714;51.208;4.242;2022-10-16T08:23:12;21.00;99.90
19164;DHT22;9714;51.208;4.242;2022-10-16T08:25:39;21.00;99.90
19164;DHT22;9714;51.208;4.242;2022-10-16T08:28:10;20.70;99.90
19164;DHT22;9714;51.208;4.242;2022-10-16T08:30:40;20.90;99.90
19164;DHT22;9714;51.208;4.242;2022-10-16T08:33:11;20.90;99.90
19164;DHT22;9714;51.208;4.242;2022-10-16T08:35:40;21.00;99.90
19164;DHT22;9714;51.208;4.242;2022-10-16T08:38:07;21.50;99.90
19164;DHT22;9714;51.208;4.242;2022-10-16T08:40:36;21.90;99.90
19164;DHT22;9714;51.208;4.242;2022-10-16T08:43:29;22.50;99.90
19164;DHT22;9714;51.208;4.242;2022-10-16T08:46:21;22.90;99.90
19164;DHT22;9714;51.208;4.242;2022-10-16T08:48:55;22.80;99.90
19164;DHT22;9714;51.208;4.242;2022-10-16T08:51:25;22.60;99.90
19164;DHT22;9714;51.208;4.242;2022-10-16T08:53:56;22.70;99.90
19164;DHT22;9714;51.208;4.242;2022-10-16T08:56:25;22.80;99.90
19164;DHT22;9714;51.208;4.242;2022-10-16T08:58:53;23.10;99.90
19164;DHT22;9714;51.208;4.242;2022-10-16T09:01:37;23.70;99.90
19164;DHT22;9714;51.208;4.242;2022-10-16T09:07:17;23.90;99.90
19164;DHT22;9714;51.208;4.242;2022-10-16T09:10:02;24.90;99.90
19164;DHT22;9714;51.208;4.242;2022-10-16T09:12:39;25.70;99.90
19164;DHT22;9714;51.208;4.242;2022-10-16T09:15:19;25.90;99.90
19164;DHT22;9714;51.208;4.242;2022-10-16T09:17:56;26.50;99.90
19164;DHT22;9714;51.208;4.242;2022-10-16T09:20:38;26.40;99.90
19164;DHT22;9714;51.208;4.242;2022-10-16T09:23:21;26.00;99.90
19164;DHT22;9714;51.208;4.242;2022-10-16T09:25:51;25.90;99.90
19164;DHT22;9714;51.208;4.242;2022-10-16T09:28:51;26.10;99.90
19164;DHT22;9714;51.208;4.242;2022-10-16T09:31:20;26.30;99.90
19164;DHT22;9714;51.208;4.242;2022-10-16T09:33:51;26.20;99.90
19164;DHT22;9714;51.208;4.242;2022-10-16T09:36:20;26.80;99.90
19164;DHT22;9714;51.208;4.242;2022-10-16T09:38:49;27.10;99.90
19164;DHT22;9714;51.208;4.242;2022-10-16T09:41:21;27.40;99.90
19164;DHT22;9714;51.208;4.242;2022-10-16T09:43:55;28.20;99.90
19164;DHT22;9714;51.208;4.242;2022-10-16T09:46:31;28.30;99.90
19164;DHT22;9714;51.208;4.242;2022-10-16T09:49:16;28.20;99.90
19164;DHT22;9714;51.208;4.242;2022-10-16T09:51:46;28.40;99.90
19164;DHT22;9714;51.208;4.242;2022-10-16T09:54:18;27.70;99.90
19164;DHT22;9714;51.208;4.242;2022-10-16T09:56:48;27.30;99.80
19164;DHT22;9714;51.208;4.242;2022-10-16T09:59:19;26.20;99.90
19164;DHT22;9714;51.208;4.242;2022-10-16T10:01:47;26.30;99.90
19164;DHT22;9714;51.208;4.242;2022-10-16T10:04:15;25.50;99.90
19164;DHT22;9714;51.208;4.242;2022-10-16T10:06:46;25.50;99.90
19164;DHT22;9714;51.208;4.242;2022-10-16T10:09:20;25.10;99.90
19164;DHT22;9714;51.208;4.242;2022-10-16T10:11:53;24.60;99.90
19164;DHT22;9714;51.208;4.242;2022-10-16T10:14:27;24.80;99.90
19164;DHT22;9714;51.208;4.242;2022-10-16T10:17:09;25.10;99.90
19164;DHT22;9714;51.208;4.242;2022-10-16T10:19:44;24.60;99.90
19164;DHT22;9714;51.208;4.242;2022-10-16T10:22:30;23.60;99.90
19164;DHT22;9714;51.208;4.242;2022-10-16T10:25:38;23.40;99.90
19164;DHT22;9714;51.208;4.242;2022-10-16T10:28:28;24.00;99.90
19164;DHT22;9714;51.208;4.242;2022-10-16T10:31:04;24.80;99.90
19164;DHT22;9714;51.208;4.242;2022-10-16T10:33:40;25.90;99.90
19164;DHT22;9714;51.208;4.242;2022-10-16T10:36:22;27.10;99.90
19164;DHT22;9714;51.208;4.242;2022-10-16T10:38:56;26.00;99.90
19164;DHT22;9714;51.208;4.242;2022-10-16T10:41:57;25.40;99.90
19164;DHT22;9714;51.208;4.242;2022-10-16T10:44:48;26.20;99.90
19164;DHT22;9714;51.208;4.242;2022-10-16T10:47:27;26.80;99.90
19164;DHT22;9714;51.208;4.242;2022-10-16T10:50:07;27.90;99.90
19164;DHT22;9714;51.208;4.242;2022-10-16T10:52:51;29.20;99.10
19164;DHT22;9714;51.208;4.242;2022-10-16T10:55:26;30.90;95.50
19164;DHT22;9714;51.208;4.242;2022-10-16T10:58:15;31.60;93.70
19164;DHT22;9714;51.208;4.242;2022-10-16T11:00:51;31.80;90.80
19164;DHT22;9714;51.208;4.242;2022-10-16T11:03:40;31.40;90.20
19164;DHT22;9714;51.208;4.242;2022-10-16T11:06:13;31.30;90.00
19164;DHT22;9714;51.208;4.242;2022-10-16T11:08:47;32.20;86.50
19164;DHT22;9714;51.208;4.242;2022-10-16T11:11:23;32.00;84.40
19164;DHT22;9714;51.208;4.242;2022-10-16T11:13:58;32.70;82.10
19164;DHT22;9714;51.208;4.242;2022-10-16T11:16:30;31.90;81.20
19164;DHT22;9714;51.208;4.242;2022-10-16T11:19:12;31.70;81.50
19164;DHT22;9714;51.208;4.242;2022-10-16T11:21:46;31.90;80.00
19164;DHT22;9714;51.208;4.242;2022-10-16T11:24:22;32.00;80.60
19164;DHT22;9714;51.208;4.242;2022-10-16T11:27:08;32.50;79.20
19164;DHT22;9714;51.208;4.242;2022-10-16T11:29:43;31.70;79.80
19164;DHT22;9714;51.208;4.242;2022-10-16T11:32:19;30.50;78.90
19164;DHT22;9714;51.208;4.242;2022-10-16T11:34:51;30.80;80.70
19164;DHT22;9714;51.208;4.242;2022-10-16T11:37:24;31.80;78.10
19164;DHT22;9714;51.208;4.242;2022-10-16T11:39:58;32.40;77.00
19164;DHT22;9714;51.208;4.242;2022-10-16T11:42:36;32.80;74.00
19164;DHT22;9714;51.208;4.242;2022-10-16T11:45:15;32.40;74.60
19164;DHT22;9714;51.208;4.242;2022-10-16T11:47:48;32.30;73.90
19164;DHT22;9714;51.208;4.242;2022-10-16T11:50:28;32.20;72.50
19164;DHT22;9714;51.208;4.242;2022-10-16T11:53:03;31.70;74.20
19164;DHT22;9714;51.208;4.242;2022-10-16T11:55:35;32.40;72.50
19164;DHT22;9714;51.208;4.242;2022-10-16T11:58:06;32.00;72.60
19164;DHT22;9714;51.208;4.242;2022-10-16T12:00:44;31.90;72.70
19164;DHT22;9714;51.208;4.242;2022-10-16T12:03:20;32.10;71.50
19164;DHT22;9714;51.208;4.242;2022-10-16T12:06:33;29.40;75.00
19164;DHT22;9714;51.208;4.242;2022-10-16T12:09:09;27.90;78.40
19164;DHT22;9714;51.208;4.242;2022-10-16T12:11:46;27.30;80.40
19164;DHT22;9714;51.208;4.242;2022-10-16T12:14:33;27.90;81.60
19164;DHT22;9714;51.208;4.242;2022-10-16T12:17:24;28.70;80.40
19164;DHT22;9714;51.208;4.242;2022-10-16T12:20:18;29.50;78.90
19164;DHT22;9714;51.208;4.242;2022-10-16T12:22:49;30.80;78.00
19164;DHT22;9714;51.208;4.242;2022-10-16T12:25:24;32.20;74.90
19164;DHT22;9714;51.208;4.242;2022-10-16T12:27:58;32.20;72.90
19164;DHT22;9714;51.208;4.242;2022-10-16T12:30:29;32.10;73.20
19164;DHT22;9714;51.208;4.242;2022-10-16T12:33:02;32.10;71.60
19164;DHT22;9714;51.208;4.242;2022-10-16T12:35:34;29.60;72.80
19164;DHT22;9714;51.208;4.242;2022-10-16T12:38:07;28.90;75.30
19164;DHT22;9714;51.208;4.242;2022-10-16T12:40:37;28.50;76.20
19164;DHT22;9714;51.208;4.242;2022-10-16T12:43:28;29.30;76.30
19164;DHT22;9714;51.208;4.242;2022-10-16T12:49:34;29.60;76.20
19164;DHT22;9714;51.208;4.242;2022-10-16T12:52:28;28.50;77.40
19164;DHT22;9714;51.208;4.242;2022-10-16T13:01:43;27.10;81.90
19164;DHT22;9714;51.208;4.242;2022-10-16T13:04:48;27.10;81.40
19164;DHT22;9714;51.208;4.242;2022-10-16T13:08:24;27.00;81.20
19164;DHT22;9714;51.208;4.242;2022-10-16T13:11:43;26.70;82.60
19164;DHT22;9714;51.208;4.242;2022-10-16T13:15:27;27.90;81.80
19164;DHT22;9714;51.208;4.242;2022-10-16T13:38:42;27.50;77.10
19164;DHT22;9714;51.208;4.242;2022-10-16T13:41:36;25.20;81.50
19164;DHT22;9714;51.208;4.242;2022-10-16T13:48:26;24.30;86.00
19164;DHT22;9714;51.208;4.242;2022-10-16T13:51:12;24.40;86.70
19164;DHT22;9714;51.208;4.242;2022-10-16T13:54:11;24.20;87.70
19164;DHT22;9714;51.208;4.242;2022-10-16T13:57:04;24.50;88.90
19164;DHT22;9714;51.208;4.242;2022-10-16T13:59:54;24.70;88.60
19164;DHT22;9714;51.208;4.242;2022-10-16T14:02:55;24.60;89.40
19164;DHT22;9714;51.208;4.242;2022-10-16T14:06:11;24.80;90.30
19164;DHT22;9714;51.208;4.242;2022-10-16T14:19:57;22.40;94.50
19164;DHT22;9714;51.208;4.242;2022-10-16T14:23:28;22.50;95.40
19164;DHT22;9714;51.208;4.242;2022-10-16T14:26:18;22.30;96.20
19164;DHT22;9714;51.208;4.242;2022-10-16T14:28:48;23.30;96.20
19164;DHT22;9714;51.208;4.242;2022-10-16T14:31:29;24.00;95.60
19164;DHT22;9714;51.208;4.242;2022-10-16T14:37:28;23.90;94.60
19164;DHT22;9714;51.208;4.242;2022-10-16T14:39:58;23.30;95.40
19164;DHT22;9714;51.208;4.242;2022-10-16T14:42:27;22.60;96.90
19164;DHT22;9714;51.208;4.242;2022-10-16T14:44:56;22.20;97.90
19164;DHT22;9714;51.208;4.242;2022-10-16T14:47:29;21.90;99.20
19164;DHT22;9714;51.208;4.242;2022-10-16T14:49:57;21.60;99.90
19164;DHT22;9714;51.208;4.242;2022-10-16T14:52:26;21.80;99.90
19164;DHT22;9714;51.208;4.242;2022-10-16T14:54:55;21.90;99.90
19164;DHT22;9714;51.208;4.242;2022-10-16T14:57:31;22.30;99.90
19164;DHT22;9714;51.208;4.242;2022-10-16T15:00:04;22.50;99.90
19164;DHT22;9714;51.208;4.242;2022-10-16T15:02:35;22.50;99.90
19164;DHT22;9714;51.208;4.242;2022-10-16T15:05:12;21.80;99.90
19164;DHT22;9714;51.208;4.242;2022-10-16T15:07:40;21.30;99.90
19164;DHT22;9714;51.208;4.242;2022-10-16T15:10:10;21.10;99.90
19164;DHT22;9714;51.208;4.242;2022-10-16T15:12:37;21.10;99.90
19164;DHT22;9714;51.208;4.242;2022-10-16T15:15:23;21.20;99.90
19164;DHT22;9714;51.208;4.242;2022-10-16T15:17:56;21.30;99.90
19164;DHT22;9714;51.208;4.242;2022-10-16T15:20:27;21.30;99.90
19164;DHT22;9714;51.208;4.242;2022-10-16T15:26:25;21.10;99.90
19164;DHT22;9714;51.208;4.242;2022-10-16T15:28:54;20.80;99.90
19164;DHT22;9714;51.208;4.242;2022-10-16T15:31:22;20.70;99.90
19164;DHT22;9714;51.208;4.242;2022-10-16T15:33:50;20.80;99.90
19164;DHT22;9714;51.208;4.242;2022-10-16T15:36:39;20.70;99.90
19164;DHT22;9714;51.208;4.242;2022-10-16T15:39:13;20.70;99.90
19164;DHT22;9714;51.208;4.242;2022-10-16T15:41:44;20.80;99.90
19164;DHT22;9714;51.208;4.242;2022-10-16T15:44:17;20.70;99.90
19164;DHT22;9714;51.208;4.242;2022-10-16T15:46:44;20.90;99.90
19164;DHT22;9714;51.208;4.242;2022-10-16T15:49:14;20.90;99.90
19164;DHT22;9714;51.208;4.242;2022-10-16T15:51:45;20.90;99.90
19164;DHT22;9714;51.208;4.242;2022-10-16T15:54:15;21.00;99.90
19164;DHT22;9714;51.208;4.242;2022-10-16T15:56:52;21.10;99.90
19164;DHT22;9714;51.208;4.242;2022-10-16T15:59:31;21.10;99.90
19164;DHT22;9714;51.208;4.242;2022-10-16T16:02:01;21.10;99.90
19164;DHT22;9714;51.208;4.242;2022-10-16T16:04:42;20.90;99.90
19164;DHT22;9714;51.208;4.242;2022-10-16T16:07:16;20.90;99.90
19164;DHT22;9714;51.208;4.242;2022-10-16T16:09:43;20.60;99.90
19164;DHT22;9714;51.208;4.242;2022-10-16T16:12:20;20.60;99.90
19164;DHT22;9714;51.208;4.242;2022-10-16T16:14:51;20.60;99.90
19164;DHT22;9714;51.208;4.242;2022-10-16T16:17:21;20.50;99.90
19164;DHT22;9714;51.208;4.242;2022-10-16T16:19:59;20.40;99.90
19164;DHT22;9714;51.208;4.242;2022-10-16T16:22:26;20.50;99.90
19164;DHT22;9714;51.208;4.242;2022-10-16T16:25:01;20.50;99.90
19164;DHT22;9714;51.208;4.242;2022-10-16T16:27:32;20.50;99.90
19164;DHT22;9714;51.208;4.242;2022-10-16T16:30:23;20.50;99.90
19164;DHT22;9714;51.208;4.242;2022-10-16T16:32:56;20.60;99.90
19164;DHT22;9714;51.208;4.242;2022-10-16T16:35:24;20.50;99.90
19164;DHT22;9714;51.208;4.242;2022-10-16T16:38:05;20.40;99.90
19164;DHT22;9714;51.208;4.242;2022-10-16T16:40:32;20.40;99.90
19164;DHT22;9714;51.208;4.242;2022-10-16T16:43:01;20.40;99.90
19164;DHT22;9714;51.208;4.242;2022-10-16T16:45:29;20.40;99.90
19164;DHT22;9714;51.208;4.242;2022-10-16T16:47:56;20.30;99.90
19164;DHT22;9714;51.208;4.242;2022-10-16T16:50:24;20.20;99.90
19164;DHT22;9714;51.208;4.242;2022-10-16T16:52:56;20.30;99.90
19164;DHT22;9714;51.208;4.242;2022-10-16T16:55:30;20.20;99.90
19164;DHT22;9714;51.208;4.242;2022-10-16T16:57:57;20.20;99.90
19164;DHT22;9714;51.208;4.242;2022-10-16T17:00:27;20.20;99.90
19164;DHT22;9714;51.208;4.242;2022-10-16T17:02:54;20.20;99.90
19164;DHT22;9714;51.208;4.242;2022-10-16T17:05:21;20.30;99.90
19164;DHT22;9714;51.208;4.242;2022-10-16T17:07:51;20.20;99.90
19164;DHT22;9714;51.208;4.242;2022-10-16T17:10:42;20.20;99.90
19164;DHT22;9714;51.208;4.242;2022-10-16T17:13:12;20.10;99.90
19164;DHT22;9714;51.208;4.242;2022-10-16T17:15:47;20.30;99.90
19164;DHT22;9714;51.208;4.242;2022-10-16T17:18:14;20.20;99.90
19164;DHT22;9714;51.208;4.242;2022-10-16T17:20:45;20.10;99.90